sensor_id;sensor_type;location;lat;lon;timestamp;P1;durP1;ratioP1;P2;durP2;ratioP2
69463;SDS011;56665;41.106;16.688;2023-03-23T00:02:46;14.17;;;9.40;;
69463;SDS011;56665;41.106;16.688;2023-03-23T00:05:50;14.00;;;8.77;;
69463;SDS011;56665;41.106;16.688;2023-03-23T00:08:54;13.38;;;8.65;;
69463;SDS011;56665;41.106;16.688;2023-03-23T00:12:02;12.40;;;8.70;;
69463;SDS011;56665;41.106;16.688;2023-03-23T00:15:08;12.30;;;8.30;;
69463;SDS011;56665;41.106;16.688;2023-03-23T00:18:16;12.23;;;7.87;;
69463;SDS011;56665;41.106;16.688;2023-03-23T00:21:25;12.65;;;8.60;;
69463;SDS011;56665;41.106;16.688;2023-03-23T00:24:39;12.82;;;8.32;;
69463;SDS011;56665;41.106;16.688;2023-03-23T00:27:44;14.90;;;8.40;;
69463;SDS011;56665;41.106;16.688;2023-03-23T00:30:49;15.80;;;9.23;;
69463;SDS011;56665;41.106;16.688;2023-03-23T00:33:54;12.93;;;7.97;;
69463;SDS011;56665;41.106;16.688;2023-03-23T00:36:58;12.93;;;8.48;;
69463;SDS011;56665;41.106;16.688;2023-03-23T00:40:02;12.88;;;8.32;;
69463;SDS011;56665;41.106;16.688;2023-03-23T00:43:14;13.32;;;8.25;;
69463;SDS011;56665;41.106;16.688;2023-03-23T00:46:19;15.70;;;8.77;;
69463;SDS011;56665;41.106;16.688;2023-03-23T00:49:24;15.43;;;8.53;;
69463;SDS011;56665;41.106;16.688;2023-03-23T00:52:29;12.98;;;8.40;;
69463;SDS011;56665;41.106;16.688;2023-03-23T00:55:33;13.75;;;8.90;;
69463;SDS011;56665;41.106;16.688;2023-03-23T00:58:37;13.60;;;8.38;;
69463;SDS011;56665;41.106;16.688;2023-03-23T01:01:41;13.63;;;9.10;;
69463;SDS011;56665;41.106;16.688;2023-03-23T01:04:45;14.23;;;8.10;;
69463;SDS011;56665;41.106;16.688;2023-03-23T01:07:48;14.52;;;8.40;;
69463;SDS011;56665;41.106;16.688;2023-03-23T01:10:52;13.00;;;8.02;;
69463;SDS011;56665;41.106;16.688;2023-03-23T01:14:10;12.30;;;7.97;;
69463;SDS011;56665;41.106;16.688;2023-03-23T01:17:16;13.43;;;8.10;;
69463;SDS011;56665;41.106;16.688;2023-03-23T01:20:19;12.67;;;7.80;;
69463;SDS011;56665;41.106;16.688;2023-03-23T01:23:23;14.18;;;8.75;;
69463;SDS011;56665;41.106;16.688;2023-03-23T01:26:27;13.77;;;8.05;;
69463;SDS011;56665;41.106;16.688;2023-03-23T01:29:33;12.68;;;7.88;;
69463;SDS011;56665;41.106;16.688;2023-03-23T01:32:38;12.55;;;7.70;;
69463;SDS011;56665;41.106;16.688;2023-03-23T01:35:43;13.37;;;7.97;;
69463;SDS011;56665;41.106;16.688;2023-03-23T01:38:47;13.73;;;7.93;;
69463;SDS011;56665;41.106;16.688;2023-03-23T01:41:52;14.70;;;8.90;;
69463;SDS011;56665;41.106;16.688;2023-03-23T01:48:25;11.43;;;7.53;;
69463;SDS011;56665;41.106;16.688;2023-03-23T01:51:33;14.03;;;8.20;;
69463;SDS011;56665;41.106;16.688;2023-03-23T01:54:40;12.88;;;8.10;;
69463;SDS011;56665;41.106;16.688;2023-03-23T01:57:48;13.27;;;8.38;;
69463;SDS011;56665;41.106;16.688;2023-03-23T02:00:57;12.27;;;8.15;;
69463;SDS011;56665;41.106;16.688;2023-03-23T02:04:06;12.00;;;8.13;;
69463;SDS011;56665;41.106;16.688;2023-03-23T02:07:14;12.63;;;8.37;;
69463;SDS011;56665;41.106;16.688;2023-03-23T02:10:20;13.05;;;7.65;;
69463;SDS011;56665;41.106;16.688;2023-03-23T02:13:24;12.85;;;8.10;;
69463;SDS011;56665;41.106;16.688;2023-03-23T02:22:58;13.53;;;8.23;;
69463;SDS011;56665;41.106;16.688;2023-03-23T02:42:54;11.13;;;8.00;;
69463;SDS011;56665;41.106;16.688;2023-03-23T02:46:00;19.13;;;11.30;;
69463;SDS011;56665;41.106;16.688;2023-03-23T02:49:11;22.25;;;13.18;;
69463;SDS011;56665;41.106;16.688;2023-03-23T02:52:19;19.17;;;11.85;;
69463;SDS011;56665;41.106;16.688;2023-03-23T02:55:27;16.07;;;9.83;;
69463;SDS011;56665;41.106;16.688;2023-03-23T02:58:35;16.40;;;9.95;;
69463;SDS011;56665;41.106;16.688;2023-03-23T03:05:06;17.08;;;9.38;;
69463;SDS011;56665;41.106;16.688;2023-03-23T03:11:35;14.33;;;8.80;;
69463;SDS011;56665;41.106;16.688;2023-03-23T03:14:44;14.75;;;8.75;;
69463;SDS011;56665;41.106;16.688;2023-03-23T03:18:06;14.30;;;9.10;;
69463;SDS011;56665;41.106;16.688;2023-03-23T03:21:12;13.60;;;8.32;;
69463;SDS011;56665;41.106;16.688;2023-03-23T03:24:20;14.10;;;8.75;;
69463;SDS011;56665;41.106;16.688;2023-03-23T03:27:28;15.73;;;9.40;;
69463;SDS011;56665;41.106;16.688;2023-03-23T03:30:44;14.77;;;9.32;;
69463;SDS011;56665;41.106;16.688;2023-03-23T03:33:50;14.75;;;9.55;;
69463;SDS011;56665;41.106;16.688;2023-03-23T03:36:54;14.77;;;9.55;;
69463;SDS011;56665;41.106;16.688;2023-03-23T03:40:02;15.45;;;10.52;;
69463;SDS011;56665;41.106;16.688;2023-03-23T03:43:11;15.93;;;9.77;;
69463;SDS011;56665;41.106;16.688;2023-03-23T03:46:14;16.65;;;9.30;;
69463;SDS011;56665;41.106;16.688;2023-03-23T03:49:18;17.27;;;10.07;;
69463;SDS011;56665;41.106;16.688;2023-03-23T03:52:23;14.40;;;8.85;;
69463;SDS011;56665;41.106;16.688;2023-03-23T03:55:27;15.70;;;9.68;;
69463;SDS011;56665;41.106;16.688;2023-03-23T03:58:31;15.73;;;9.97;;
69463;SDS011;56665;41.106;16.688;2023-03-23T04:02:01;14.23;;;8.98;;
69463;SDS011;56665;41.106;16.688;2023-03-23T04:05:05;13.85;;;8.95;;
69463;SDS011;56665;41.106;16.688;2023-03-23T04:08:10;13.02;;;8.75;;
69463;SDS011;56665;41.106;16.688;2023-03-23T04:11:14;16.05;;;9.48;;
69463;SDS011;56665;41.106;16.688;2023-03-23T04:14:19;15.63;;;9.30;;
69463;SDS011;56665;41.106;16.688;2023-03-23T04:17:22;13.50;;;8.95;;
69463;SDS011;56665;41.106;16.688;2023-03-23T04:20:30;14.38;;;9.30;;
69463;SDS011;56665;41.106;16.688;2023-03-23T04:23:33;14.85;;;9.43;;
69463;SDS011;56665;41.106;16.688;2023-03-23T04:26:39;16.00;;;9.50;;
69463;SDS011;56665;41.106;16.688;2023-03-23T04:29:55;15.73;;;9.40;;
69463;SDS011;56665;41.106;16.688;2023-03-23T04:33:20;13.90;;;9.20;;
69463;SDS011;56665;41.106;16.688;2023-03-23T04:36:30;15.55;;;9.10;;
69463;SDS011;56665;41.106;16.688;2023-03-23T04:39:40;15.73;;;9.13;;
69463;SDS011;56665;41.106;16.688;2023-03-23T04:42:48;15.63;;;10.10;;
69463;SDS011;56665;41.106;16.688;2023-03-23T04:46:27;17.57;;;10.53;;
69463;SDS011;56665;41.106;16.688;2023-03-23T04:49:35;23.88;;;12.65;;
69463;SDS011;56665;41.106;16.688;2023-03-23T04:52:54;24.45;;;13.50;;
69463;SDS011;56665;41.106;16.688;2023-03-23T04:56:00;26.73;;;14.30;;
69463;SDS011;56665;41.106;16.688;2023-03-23T04:59:09;30.40;;;16.38;;
69463;SDS011;56665;41.106;16.688;2023-03-23T05:02:21;32.87;;;16.87;;
69463;SDS011;56665;41.106;16.688;2023-03-23T05:05:26;33.08;;;17.25;;
69463;SDS011;56665;41.106;16.688;2023-03-23T05:08:33;37.55;;;19.67;;
69463;SDS011;56665;41.106;16.688;2023-03-23T05:11:37;38.75;;;19.13;;
69463;SDS011;56665;41.106;16.688;2023-03-23T05:14:42;40.50;;;20.75;;
69463;SDS011;56665;41.106;16.688;2023-03-23T05:17:51;40.90;;;21.57;;
69463;SDS011;56665;41.106;16.688;2023-03-23T05:20:59;42.15;;;22.58;;
69463;SDS011;56665;41.106;16.688;2023-03-23T05:24:06;44.83;;;23.13;;
69463;SDS011;56665;41.106;16.688;2023-03-23T05:27:10;41.40;;;21.98;;
69463;SDS011;56665;41.106;16.688;2023-03-23T05:30:18;38.40;;;21.40;;
69463;SDS011;56665;41.106;16.688;2023-03-23T05:33:22;43.27;;;24.57;;
69463;SDS011;56665;41.106;16.688;2023-03-23T05:36:41;45.70;;;24.63;;
69463;SDS011;56665;41.106;16.688;2023-03-23T05:40:01;43.55;;;22.15;;
69463;SDS011;56665;41.106;16.688;2023-03-23T05:43:21;41.13;;;22.52;;
69463;SDS011;56665;41.106;16.688;2023-03-23T05:46:44;39.40;;;22.02;;
69463;SDS011;56665;41.106;16.688;2023-03-23T05:49:48;41.00;;;21.63;;
69463;SDS011;56665;41.106;16.688;2023-03-23T05:52:55;39.28;;;22.05;;
69463;SDS011;56665;41.106;16.688;2023-03-23T05:56:02;38.85;;;22.30;;
69463;SDS011;56665;41.106;16.688;2023-03-23T05:59:25;36.03;;;23.17;;
69463;SDS011;56665;41.106;16.688;2023-03-23T06:02:32;39.92;;;23.40;;
69463;SDS011;56665;41.106;16.688;2023-03-23T06:05:41;36.20;;;24.63;;
69463;SDS011;56665;41.106;16.688;2023-03-23T06:08:51;31.85;;;21.92;;
69463;SDS011;56665;41.106;16.688;2023-03-23T06:12:04;30.85;;;18.85;;
69463;SDS011;56665;41.106;16.688;2023-03-23T06:15:29;28.15;;;18.05;;
69463;SDS011;56665;41.106;16.688;2023-03-23T06:18:55;25.95;;;16.50;;
69463;SDS011;56665;41.106;16.688;2023-03-23T06:22:05;23.40;;;15.43;;
69463;SDS011;56665;41.106;16.688;2023-03-23T06:25:20;21.05;;;15.50;;
69463;SDS011;56665;41.106;16.688;2023-03-23T06:28:26;20.73;;;15.30;;
69463;SDS011;56665;41.106;16.688;2023-03-23T06:31:31;23.13;;;14.20;;
69463;SDS011;56665;41.106;16.688;2023-03-23T06:34:39;22.75;;;14.63;;
69463;SDS011;56665;41.106;16.688;2023-03-23T06:38:05;26.90;;;16.50;;
69463;SDS011;56665;41.106;16.688;2023-03-23T06:41:18;23.17;;;15.60;;
69463;SDS011;56665;41.106;16.688;2023-03-23T06:44:22;25.15;;;17.10;;
69463;SDS011;56665;41.106;16.688;2023-03-23T06:47:26;21.73;;;15.23;;
69463;SDS011;56665;41.106;16.688;2023-03-23T06:50:33;24.67;;;16.60;;
69463;SDS011;56665;41.106;16.688;2023-03-23T06:53:39;24.27;;;15.97;;
69463;SDS011;56665;41.106;16.688;2023-03-23T06:56:47;25.63;;;16.85;;
69463;SDS011;56665;41.106;16.688;2023-03-23T06:59:51;25.58;;;17.85;;
69463;SDS011;56665;41.106;16.688;2023-03-23T07:02:55;27.20;;;19.55;;
69463;SDS011;56665;41.106;16.688;2023-03-23T07:05:59;28.65;;;19.95;;
69463;SDS011;56665;41.106;16.688;2023-03-23T07:09:07;26.83;;;19.50;;
69463;SDS011;56665;41.106;16.688;2023-03-23T07:12:11;25.08;;;18.77;;
69463;SDS011;56665;41.106;16.688;2023-03-23T07:15:22;26.63;;;18.92;;
69463;SDS011;56665;41.106;16.688;2023-03-23T07:18:29;29.25;;;18.63;;
69463;SDS011;56665;41.106;16.688;2023-03-23T07:21:35;27.23;;;18.45;;
69463;SDS011;56665;41.106;16.688;2023-03-23T07:24:39;25.83;;;18.07;;
69463;SDS011;56665;41.106;16.688;2023-03-23T07:27:52;26.08;;;17.23;;
69463;SDS011;56665;41.106;16.688;2023-03-23T07:30:55;25.52;;;17.85;;
69463;SDS011;56665;41.106;16.688;2023-03-23T07:34:00;22.45;;;16.20;;
69463;SDS011;56665;41.106;16.688;2023-03-23T07:37:15;26.90;;;17.48;;
69463;SDS011;56665;41.106;16.688;2023-03-23T07:40:24;24.87;;;17.33;;
69463;SDS011;56665;41.106;16.688;2023-03-23T07:43:30;20.05;;;13.90;;
69463;SDS011;56665;41.106;16.688;2023-03-23T07:46:52;16.23;;;10.57;;
69463;SDS011;56665;41.106;16.688;2023-03-23T07:50:06;14.45;;;9.80;;
69463;SDS011;56665;41.106;16.688;2023-03-23T07:53:17;13.93;;;9.85;;
69463;SDS011;56665;41.106;16.688;2023-03-23T07:56:30;15.77;;;11.10;;
69463;SDS011;56665;41.106;16.688;2023-03-23T07:59:57;21.42;;;14.23;;
69463;SDS011;56665;41.106;16.688;2023-03-23T08:03:00;19.23;;;13.82;;
69463;SDS011;56665;41.106;16.688;2023-03-23T08:06:11;19.27;;;12.75;;
69463;SDS011;56665;41.106;16.688;2023-03-23T08:09:38;19.55;;;12.80;;
69463;SDS011;56665;41.106;16.688;2023-03-23T08:12:58;14.65;;;11.13;;
69463;SDS011;56665;41.106;16.688;2023-03-23T08:16:06;18.27;;;12.48;;
69463;SDS011;56665;41.106;16.688;2023-03-23T08:19:50;18.63;;;13.25;;
69463;SDS011;56665;41.106;16.688;2023-03-23T08:23:18;17.02;;;11.88;;
69463;SDS011;56665;41.106;16.688;2023-03-23T08:26:37;22.25;;;13.80;;
69463;SDS011;56665;41.106;16.688;2023-03-23T08:30:00;21.60;;;14.48;;
69463;SDS011;56665;41.106;16.688;2023-03-23T08:33:29;20.35;;;14.73;;
69463;SDS011;56665;41.106;16.688;2023-03-23T08:36:52;22.95;;;13.93;;
69463;SDS011;56665;41.106;16.688;2023-03-23T08:40:15;19.67;;;13.55;;
69463;SDS011;56665;41.106;16.688;2023-03-23T08:43:41;14.02;;;10.52;;
69463;SDS011;56665;41.106;16.688;2023-03-23T08:47:14;15.55;;;9.98;;
69463;SDS011;56665;41.106;16.688;2023-03-23T08:50:44;16.25;;;9.30;;
69463;SDS011;56665;41.106;16.688;2023-03-23T08:53:48;16.83;;;11.40;;
69463;SDS011;56665;41.106;16.688;2023-03-23T08:57:10;33.97;;;20.90;;
69463;SDS011;56665;41.106;16.688;2023-03-23T09:00:40;17.10;;;10.93;;
69463;SDS011;56665;41.106;16.688;2023-03-23T09:03:53;13.33;;;9.53;;
69463;SDS011;56665;41.106;16.688;2023-03-23T09:07:16;20.70;;;11.20;;
69463;SDS011;56665;41.106;16.688;2023-03-23T09:10:20;10.82;;;8.35;;
69463;SDS011;56665;41.106;16.688;2023-03-23T09:13:27;11.98;;;9.13;;
69463;SDS011;56665;41.106;16.688;2023-03-23T09:16:31;13.75;;;9.32;;
69463;SDS011;56665;41.106;16.688;2023-03-23T09:19:35;8.95;;;6.70;;
69463;SDS011;56665;41.106;16.688;2023-03-23T09:22:40;15.82;;;10.25;;
69463;SDS011;56665;41.106;16.688;2023-03-23T09:25:48;20.58;;;12.05;;
69463;SDS011;56665;41.106;16.688;2023-03-23T09:28:52;16.00;;;9.70;;
69463;SDS011;56665;41.106;16.688;2023-03-23T09:31:57;15.60;;;10.00;;
69463;SDS011;56665;41.106;16.688;2023-03-23T09:35:01;12.75;;;8.90;;
69463;SDS011;56665;41.106;16.688;2023-03-23T09:38:08;12.10;;;7.70;;
69463;SDS011;56665;41.106;16.688;2023-03-23T09:44:57;6.30;;;4.47;;
69463;SDS011;56665;41.106;16.688;2023-03-23T09:51:45;7.90;;;5.30;;
69463;SDS011;56665;41.106;16.688;2023-03-23T09:54:53;6.22;;;4.63;;
69463;SDS011;56665;41.106;16.688;2023-03-23T10:01:32;9.07;;;4.97;;
69463;SDS011;56665;41.106;16.688;2023-03-23T10:04:46;5.68;;;4.00;;
69463;SDS011;56665;41.106;16.688;2023-03-23T10:07:49;6.88;;;4.45;;
69463;SDS011;56665;41.106;16.688;2023-03-23T10:14:28;8.32;;;6.35;;
69463;SDS011;56665;41.106;16.688;2023-03-23T10:21:05;7.28;;;4.93;;
69463;SDS011;56665;41.106;16.688;2023-03-23T10:24:15;6.47;;;4.60;;
69463;SDS011;56665;41.106;16.688;2023-03-23T10:31:01;7.57;;;5.50;;
69463;SDS011;56665;41.106;16.688;2023-03-23T10:34:12;11.90;;;8.73;;
69463;SDS011;56665;41.106;16.688;2023-03-23T10:37:24;8.50;;;5.68;;
69463;SDS011;56665;41.106;16.688;2023-03-23T10:40:30;8.20;;;6.35;;
69463;SDS011;56665;41.106;16.688;2023-03-23T10:43:37;7.50;;;5.10;;
69463;SDS011;56665;41.106;16.688;2023-03-23T10:50:06;9.95;;;7.93;;
69463;SDS011;56665;41.106;16.688;2023-03-23T10:53:56;9.32;;;6.07;;
69463;SDS011;56665;41.106;16.688;2023-03-23T10:56:53;9.15;;;5.75;;
69463;SDS011;56665;41.106;16.688;2023-03-23T10:59:58;10.43;;;7.38;;
69463;SDS011;56665;41.106;16.688;2023-03-23T11:06:22;11.35;;;6.35;;
69463;SDS011;56665;41.106;16.688;2023-03-23T11:09:39;10.95;;;7.68;;
69463;SDS011;56665;41.106;16.688;2023-03-23T11:12:58;10.97;;;7.40;;
69463;SDS011;56665;41.106;16.688;2023-03-23T11:16:04;10.55;;;7.78;;
69463;SDS011;56665;41.106;16.688;2023-03-23T11:19:15;9.68;;;7.43;;
69463;SDS011;56665;41.106;16.688;2023-03-23T11:22:32;12.45;;;7.78;;
69463;SDS011;56665;41.106;16.688;2023-03-23T11:25:50;15.10;;;9.13;;
69463;SDS011;56665;41.106;16.688;2023-03-23T11:32:05;10.98;;;7.95;;
69463;SDS011;56665;41.106;16.688;2023-03-23T11:35:23;11.25;;;7.20;;
69463;SDS011;56665;41.106;16.688;2023-03-23T11:38:32;10.30;;;6.50;;
69463;SDS011;56665;41.106;16.688;2023-03-23T11:41:39;9.40;;;6.47;;
69463;SDS011;56665;41.106;16.688;2023-03-23T11:44:44;12.52;;;8.35;;
69463;SDS011;56665;41.106;16.688;2023-03-23T11:54:34;26.48;;;17.88;;
69463;SDS011;56665;41.106;16.688;2023-03-23T11:57:41;46.45;;;29.48;;
69463;SDS011;56665;41.106;16.688;2023-03-23T12:00:50;24.30;;;15.30;;
69463;SDS011;56665;41.106;16.688;2023-03-23T12:04:07;17.80;;;11.00;;
69463;SDS011;56665;41.106;16.688;2023-03-23T12:07:42;15.90;;;10.45;;
69463;SDS011;56665;41.106;16.688;2023-03-23T12:30:43;11.07;;;6.55;;
69463;SDS011;56665;41.106;16.688;2023-03-23T12:50:25;10.57;;;6.07;;
69463;SDS011;56665;41.106;16.688;2023-03-23T12:53:36;10.48;;;6.28;;
69463;SDS011;56665;41.106;16.688;2023-03-23T12:57:06;9.90;;;5.22;;
69463;SDS011;56665;41.106;16.688;2023-03-23T13:00:21;8.73;;;4.50;;
69463;SDS011;56665;41.106;16.688;2023-03-23T13:03:29;6.20;;;4.35;;
69463;SDS011;56665;41.106;16.688;2023-03-23T13:06:38;5.77;;;4.03;;
69463;SDS011;56665;41.106;16.688;2023-03-23T13:12:53;8.55;;;3.88;;
69463;SDS011;56665;41.106;16.688;2023-03-23T13:16:07;5.80;;;4.22;;
69463;SDS011;56665;41.106;16.688;2023-03-23T13:22:39;7.30;;;3.60;;
69463;SDS011;56665;41.106;16.688;2023-03-23T13:25:56;6.30;;;3.83;;
69463;SDS011;56665;41.106;16.688;2023-03-23T13:32:22;6.15;;;3.60;;
69463;SDS011;56665;41.106;16.688;2023-03-23T13:35:38;7.30;;;3.92;;
69463;SDS011;56665;41.106;16.688;2023-03-23T13:38:45;5.10;;;3.40;;
69463;SDS011;56665;41.106;16.688;2023-03-23T13:48:40;8.75;;;5.43;;
69463;SDS011;56665;41.106;16.688;2023-03-23T13:51:59;8.20;;;5.50;;
69463;SDS011;56665;41.106;16.688;2023-03-23T13:58:44;5.03;;;3.55;;
69463;SDS011;56665;41.106;16.688;2023-03-23T14:01:50;5.50;;;3.80;;
69463;SDS011;56665;41.106;16.688;2023-03-23T14:04:56;6.13;;;4.40;;
69463;SDS011;56665;41.106;16.688;2023-03-23T14:08:02;7.15;;;4.30;;
69463;SDS011;56665;41.106;16.688;2023-03-23T14:11:19;5.60;;;3.40;;
69463;SDS011;56665;41.106;16.688;2023-03-23T14:14:31;5.40;;;3.67;;
69463;SDS011;56665;41.106;16.688;2023-03-23T14:17:43;5.07;;;3.05;;
69463;SDS011;56665;41.106;16.688;2023-03-23T14:20:48;5.97;;;4.22;;
69463;SDS011;56665;41.106;16.688;2023-03-23T14:23:53;6.25;;;4.30;;
69463;SDS011;56665;41.106;16.688;2023-03-23T14:27:15;5.72;;;3.95;;
69463;SDS011;56665;41.106;16.688;2023-03-23T14:30:25;7.82;;;3.78;;
69463;SDS011;56665;41.106;16.688;2023-03-23T14:33:31;4.55;;;3.35;;
69463;SDS011;56665;41.106;16.688;2023-03-23T14:36:35;5.53;;;3.95;;
69463;SDS011;56665;41.106;16.688;2023-03-23T14:39:46;6.18;;;4.45;;
69463;SDS011;56665;41.106;16.688;2023-03-23T14:42:52;7.22;;;5.38;;
69463;SDS011;56665;41.106;16.688;2023-03-23T14:45:59;7.18;;;5.40;;
69463;SDS011;56665;41.106;16.688;2023-03-23T14:49:05;7.22;;;5.13;;
69463;SDS011;56665;41.106;16.688;2023-03-23T14:52:14;5.95;;;4.00;;
69463;SDS011;56665;41.106;16.688;2023-03-23T14:55:20;6.43;;;4.43;;
69463;SDS011;56665;41.106;16.688;2023-03-23T14:58:26;6.93;;;4.37;;
69463;SDS011;56665;41.106;16.688;2023-03-23T15:01:33;6.93;;;5.07;;
69463;SDS011;56665;41.106;16.688;2023-03-23T15:04:38;5.78;;;3.95;;
69463;SDS011;56665;41.106;16.688;2023-03-23T15:07:45;5.10;;;3.50;;
69463;SDS011;56665;41.106;16.688;2023-03-23T15:10:52;4.90;;;3.38;;
69463;SDS011;56665;41.106;16.688;2023-03-23T15:14:07;4.83;;;3.00;;
69463;SDS011;56665;41.106;16.688;2023-03-23T15:17:22;6.03;;;4.20;;
69463;SDS011;56665;41.106;16.688;2023-03-23T15:20:30;6.63;;;4.40;;
69463;SDS011;56665;41.106;16.688;2023-03-23T15:23:46;7.68;;;4.65;;
69463;SDS011;56665;41.106;16.688;2023-03-23T15:26:50;9.02;;;4.65;;
69463;SDS011;56665;41.106;16.688;2023-03-23T15:29:57;6.20;;;3.50;;
69463;SDS011;56665;41.106;16.688;2023-03-23T15:33:14;8.02;;;5.18;;
69463;SDS011;56665;41.106;16.688;2023-03-23T15:36:19;6.45;;;4.97;;
69463;SDS011;56665;41.106;16.688;2023-03-23T15:39:24;6.95;;;4.68;;
69463;SDS011;56665;41.106;16.688;2023-03-23T15:42:32;6.15;;;4.07;;
69463;SDS011;56665;41.106;16.688;2023-03-23T15:45:38;4.97;;;3.13;;
69463;SDS011;56665;41.106;16.688;2023-03-23T15:48:46;6.80;;;3.75;;
69463;SDS011;56665;41.106;16.688;2023-03-23T15:51:51;6.38;;;3.92;;
69463;SDS011;56665;41.106;16.688;2023-03-23T15:54:54;6.18;;;3.78;;
69463;SDS011;56665;41.106;16.688;2023-03-23T15:57:58;6.80;;;4.55;;
69463;SDS011;56665;41.106;16.688;2023-03-23T16:01:06;11.10;;;6.53;;
69463;SDS011;56665;41.106;16.688;2023-03-23T16:04:17;8.13;;;5.20;;
69463;SDS011;56665;41.106;16.688;2023-03-23T16:07:22;5.45;;;3.97;;
69463;SDS011;56665;41.106;16.688;2023-03-23T16:10:28;8.07;;;4.20;;
69463;SDS011;56665;41.106;16.688;2023-03-23T16:13:32;5.63;;;3.58;;
69463;SDS011;56665;41.106;16.688;2023-03-23T16:16:37;5.67;;;3.87;;
69463;SDS011;56665;41.106;16.688;2023-03-23T16:19:44;5.60;;;3.70;;
69463;SDS011;56665;41.106;16.688;2023-03-23T16:22:48;6.00;;;3.88;;
69463;SDS011;56665;41.106;16.688;2023-03-23T16:25:54;6.95;;;4.32;;
69463;SDS011;56665;41.106;16.688;2023-03-23T16:28:59;5.50;;;4.07;;
69463;SDS011;56665;41.106;16.688;2023-03-23T16:32:05;6.13;;;4.23;;
69463;SDS011;56665;41.106;16.688;2023-03-23T16:35:11;6.50;;;4.18;;
69463;SDS011;56665;41.106;16.688;2023-03-23T16:38:19;6.40;;;3.72;;
69463;SDS011;56665;41.106;16.688;2023-03-23T16:41:23;5.60;;;3.72;;
69463;SDS011;56665;41.106;16.688;2023-03-23T16:44:30;5.40;;;4.00;;
69463;SDS011;56665;41.106;16.688;2023-03-23T16:47:35;5.57;;;4.00;;
69463;SDS011;56665;41.106;16.688;2023-03-23T16:50:42;6.68;;;4.10;;
69463;SDS011;56665;41.106;16.688;2023-03-23T16:53:49;5.30;;;3.83;;
69463;SDS011;56665;41.106;16.688;2023-03-23T16:56:53;7.35;;;4.30;;
69463;SDS011;56665;41.106;16.688;2023-03-23T16:59:58;6.25;;;4.90;;
69463;SDS011;56665;41.106;16.688;2023-03-23T17:03:04;6.37;;;4.30;;
69463;SDS011;56665;41.106;16.688;2023-03-23T17:06:10;6.93;;;4.60;;
69463;SDS011;56665;41.106;16.688;2023-03-23T17:09:13;5.95;;;4.15;;
69463;SDS011;56665;41.106;16.688;2023-03-23T17:12:17;8.30;;;4.78;;
69463;SDS011;56665;41.106;16.688;2023-03-23T17:15:21;9.90;;;5.20;;
69463;SDS011;56665;41.106;16.688;2023-03-23T17:18:27;7.85;;;4.93;;
69463;SDS011;56665;41.106;16.688;2023-03-23T17:21:31;7.63;;;4.03;;
69463;SDS011;56665;41.106;16.688;2023-03-23T17:24:35;7.22;;;4.70;;
69463;SDS011;56665;41.106;16.688;2023-03-23T17:27:39;6.45;;;4.20;;
69463;SDS011;56665;41.106;16.688;2023-03-23T17:30:45;8.30;;;5.90;;
69463;SDS011;56665;41.106;16.688;2023-03-23T17:33:48;8.40;;;5.93;;
69463;SDS011;56665;41.106;16.688;2023-03-23T17:36:54;8.98;;;6.45;;
69463;SDS011;56665;41.106;16.688;2023-03-23T17:39:57;13.20;;;9.93;;
69463;SDS011;56665;41.106;16.688;2023-03-23T17:43:01;13.95;;;9.70;;
69463;SDS011;56665;41.106;16.688;2023-03-23T17:46:05;16.00;;;10.80;;
69463;SDS011;56665;41.106;16.688;2023-03-23T17:49:10;20.77;;;12.00;;
69463;SDS011;56665;41.106;16.688;2023-03-23T17:52:14;20.80;;;14.05;;
69463;SDS011;56665;41.106;16.688;2023-03-23T17:55:18;16.65;;;12.45;;
69463;SDS011;56665;41.106;16.688;2023-03-23T17:58:23;17.45;;;12.25;;
69463;SDS011;56665;41.106;16.688;2023-03-23T18:01:29;21.10;;;14.75;;
69463;SDS011;56665;41.106;16.688;2023-03-23T18:04:33;38.43;;;25.53;;
69463;SDS011;56665;41.106;16.688;2023-03-23T18:07:37;58.20;;;35.63;;
69463;SDS011;56665;41.106;16.688;2023-03-23T18:10:42;65.22;;;39.63;;
69463;SDS011;56665;41.106;16.688;2023-03-23T18:13:46;51.72;;;32.15;;
69463;SDS011;56665;41.106;16.688;2023-03-23T18:16:50;54.60;;;31.48;;
69463;SDS011;56665;41.106;16.688;2023-03-23T18:19:55;41.00;;;25.03;;
69463;SDS011;56665;41.106;16.688;2023-03-23T18:23:00;29.85;;;16.98;;
69463;SDS011;56665;41.106;16.688;2023-03-23T18:26:07;18.90;;;12.30;;
69463;SDS011;56665;41.106;16.688;2023-03-23T18:29:13;21.08;;;13.32;;
69463;SDS011;56665;41.106;16.688;2023-03-23T18:32:18;24.50;;;14.15;;
69463;SDS011;56665;41.106;16.688;2023-03-23T18:35:24;22.17;;;12.87;;
69463;SDS011;56665;41.106;16.688;2023-03-23T18:38:29;21.48;;;13.45;;
69463;SDS011;56665;41.106;16.688;2023-03-23T18:41:34;23.65;;;14.38;;
69463;SDS011;56665;41.106;16.688;2023-03-23T18:44:38;22.13;;;13.90;;
69463;SDS011;56665;41.106;16.688;2023-03-23T18:47:43;20.02;;;11.88;;
69463;SDS011;56665;41.106;16.688;2023-03-23T18:50:47;18.77;;;11.63;;
69463;SDS011;56665;41.106;16.688;2023-03-23T18:53:52;19.90;;;12.05;;
69463;SDS011;56665;41.106;16.688;2023-03-23T18:56:55;24.70;;;12.65;;
69463;SDS011;56665;41.106;16.688;2023-03-23T19:00:00;19.27;;;11.38;;
69463;SDS011;56665;41.106;16.688;2023-03-23T19:03:06;20.08;;;11.55;;
69463;SDS011;56665;41.106;16.688;2023-03-23T19:06:19;16.60;;;10.57;;
69463;SDS011;56665;41.106;16.688;2023-03-23T19:09:28;19.20;;;11.52;;
69463;SDS011;56665;41.106;16.688;2023-03-23T19:12:33;16.15;;;11.13;;
69463;SDS011;56665;41.106;16.688;2023-03-23T19:15:38;19.17;;;10.63;;
69463;SDS011;56665;41.106;16.688;2023-03-23T19:18:43;16.85;;;11.52;;
69463;SDS011;56665;41.106;16.688;2023-03-23T19:21:48;16.87;;;10.80;;
69463;SDS011;56665;41.106;16.688;2023-03-23T19:24:54;14.50;;;9.63;;
69463;SDS011;56665;41.106;16.688;2023-03-23T19:27:58;14.40;;;10.02;;
69463;SDS011;56665;41.106;16.688;2023-03-23T19:31:02;18.42;;;10.10;;
69463;SDS011;56665;41.106;16.688;2023-03-23T19:34:05;16.08;;;9.75;;
69463;SDS011;56665;41.106;16.688;2023-03-23T19:37:11;16.77;;;9.80;;
69463;SDS011;56665;41.106;16.688;2023-03-23T19:40:19;15.77;;;9.48;;
69463;SDS011;56665;41.106;16.688;2023-03-23T19:43:25;16.00;;;10.25;;
69463;SDS011;56665;41.106;16.688;2023-03-23T19:46:31;15.63;;;9.85;;
69463;SDS011;56665;41.106;16.688;2023-03-23T19:49:36;15.45;;;10.65;;
69463;SDS011;56665;41.106;16.688;2023-03-23T19:52:41;16.33;;;10.10;;
69463;SDS011;56665;41.106;16.688;2023-03-23T19:55:45;15.48;;;9.40;;
69463;SDS011;56665;41.106;16.688;2023-03-23T19:58:48;16.17;;;9.43;;
69463;SDS011;56665;41.106;16.688;2023-03-23T20:01:55;16.35;;;10.13;;
69463;SDS011;56665;41.106;16.688;2023-03-23T20:04:58;14.85;;;9.73;;
69463;SDS011;56665;41.106;16.688;2023-03-23T20:08:02;14.93;;;9.57;;
69463;SDS011;56665;41.106;16.688;2023-03-23T20:11:08;14.57;;;9.35;;
69463;SDS011;56665;41.106;16.688;2023-03-23T20:14:14;14.23;;;8.98;;
69463;SDS011;56665;41.106;16.688;2023-03-23T20:17:18;14.55;;;9.75;;
69463;SDS011;56665;41.106;16.688;2023-03-23T20:20:22;14.30;;;9.00;;
69463;SDS011;56665;41.106;16.688;2023-03-23T20:23:27;15.10;;;9.77;;
69463;SDS011;56665;41.106;16.688;2023-03-23T20:26:33;13.95;;;9.38;;
69463;SDS011;56665;41.106;16.688;2023-03-23T20:29:40;13.75;;;8.93;;
69463;SDS011;56665;41.106;16.688;2023-03-23T20:32:44;12.95;;;8.63;;